Time;durP1;ratioP1;P1;durP2;ratioP2;P2;SDS_P1;SDS_P2;PMS_P1;PMS_P2;Temp;Humidity;BMP_temperature;BMP_pressure;BME280_temperature;BME280_humidity;BME280_pressure;Samples;Min_cycle;Max_cycle;Signal;HPM_P1;HPM_P2
2021/10/24 00:00:47;;;;;;;13.55;8.20;;;281.80;2278.40;;;;;;4952820;29;20581;-56
2021/10/24 00:03:13;;;;;;;14.98;7.68;;;281.70;2278.40;;;;;;4952600;29;20049;-57
2021/10/24 00:05:38;;;;;;;13.48;6.93;;;281.80;2278.40;;;;;;4952423;29;20043;-56
2021/10/24 00:08:04;;;;;;;11.35;6.90;;;281.70;2278.40;;;;;;4952332;28;20105;-56
2021/10/24 00:10:30;;;;;;;13.73;8.15;;;281.70;2278.40;;;;;;4952569;29;20347;-56
2021/10/24 00:12:56;;;;;;;19.80;8.82;;;281.70;2278.40;;;;;;4952366;29;20107;-56
2021/10/24 00:15:22;;;;;;;13.65;7.18;;;281.70;2278.40;;;;;;4952338;29;20031;-56
2021/10/24 00:17:47;;;;;;;14.45;9.27;;;281.80;2278.40;;;;;;4952356;29;20023;-53
2021/10/24 00:20:13;;;;;;;15.23;9.15;;;281.90;2278.40;;;;;;4934834;29;20389;-56
2021/10/24 00:22:39;;;;;;;11.68;6.57;;;281.90;2278.40;;;;;;4951930;29;20031;-56
2021/10/24 00:25:05;;;;;;;11.20;7.00;;;281.90;2278.40;;;;;;4952647;29;20066;-57
2021/10/24 00:27:31;;;;;;;11.55;6.60;;;281.80;2278.40;;;;;;4952467;29;20039;-56
2021/10/24 00:29:57;;;;;;;10.98;6.47;;;281.90;2278.40;;;;;;4952461;29;20458;-54
2021/10/24 00:32:23;;;;;;;12.05;6.95;;;281.80;2278.40;;;;;;4952439;29;20034;-56
2021/10/24 00:34:48;;;;;;;13.52;7.35;;;281.80;2278.40;;;;;;4952197;29;20043;-56
2021/10/24 00:37:14;;;;;;;10.20;7.03;;;281.80;2278.40;;;;;;4952183;29;20027;-57
2021/10/24 00:39:40;;;;;;;11.95;7.00;;;281.80;2278.40;;;;;;4952010;29;20378;-55
2021/10/24 00:42:05;;;;;;;13.55;7.78;;;281.70;2278.40;;;;;;4952374;29;20067;-57
2021/10/24 00:44:33;;;;;;;21.35;8.25;;;281.70;2278.40;;;;;;4951975;29;20039;-55
2021/10/24 00:47:00;;;;;;;9.02;6.18;;;281.70;2278.40;;;;;;4951911;29;20035;-57
2021/10/24 00:49:26;;;;;;;9.90;7.45;;;281.70;2278.40;;;;;;4952147;29;20038;-56
2021/10/24 00:51:54;;;;;;;13.18;8.52;;;281.60;2278.40;;;;;;4951978;29;20529;-57
2021/10/24 00:54:22;;;;;;;9.90;6.18;;;281.60;2278.40;;;;;;4951779;28;20367;-55
2021/10/24 00:56:50;;;;;;;13.70;7.10;;;281.60;2278.40;;;;;;4952202;29;20038;-56
2021/10/24 00:59:16;;;;;;;11.32;7.65;;;281.70;2278.40;;;;;;4952155;29;20034;-56
2021/10/24 01:01:42;;;;;;;11.77;8.90;;;281.70;2278.40;;;;;;4951864;29;20433;-56
2021/10/24 01:04:08;;;;;;;13.95;6.47;;;281.70;2278.40;;;;;;4951721;29;20069;-55
2021/10/24 01:06:36;;;;;;;9.45;5.82;;;281.70;2278.40;;;;;;4951899;29;20055;-57
2021/10/24 01:09:08;;;;;;;10.15;7.38;;;281.70;2278.40;;;;;;4951672;29;20434;-55
2021/10/24 01:11:33;;;;;;;10.65;6.63;;;281.80;2278.40;;;;;;4951979;29;20019;-55
2021/10/24 01:13:59;;;;;;;11.25;6.05;;;281.80;2278.40;;;;;;4933855;29;20142;-56
2021/10/24 01:16:26;;;;;;;8.95;5.45;;;281.80;2278.40;;;;;;4951709;29;20031;-56
2021/10/24 01:18:51;;;;;;;12.68;5.90;;;281.80;2278.40;;;;;;4951660;28;20058;-56
2021/10/24 01:21:18;;;;;;;10.10;5.78;;;281.70;2278.40;;;;;;4955679;29;20718;-55
2021/10/24 01:23:44;;;;;;;12.10;6.30;;;281.80;2278.40;;;;;;4955261;29;20036;-59
2021/10/24 01:26:11;;;;;;;13.77;6.80;;;281.70;2278.40;;;;;;4955306;29;20059;-58
2021/10/24 01:28:37;;;;;;;10.70;6.50;;;281.80;2278.40;;;;;;4955741;29;20023;-55
2021/10/24 01:31:04;;;;;;;8.52;6.00;;;281.80;2278.40;;;;;;4955660;29;20046;-56
2021/10/24 01:33:30;;;;;;;11.55;7.70;;;281.90;2278.40;;;;;;4955344;29;20023;-56
2021/10/24 01:36:03;;;;;;;9.68;6.82;;;281.80;2278.40;;;;;;4955506;29;20023;-56
2021/10/24 01:38:30;;;;;;;9.60;6.20;;;281.90;2278.40;;;;;;4955478;29;20027;-56
2021/10/24 01:40:57;;;;;;;10.15;6.22;;;281.70;2278.40;;;;;;4955257;29;20027;-56
2021/10/24 01:43:24;;;;;;;10.60;6.47;;;281.70;2278.40;;;;;;4955001;29;20036;-56
2021/10/24 01:45:51;;;;;;;11.45;6.95;;;281.70;2278.40;;;;;;4955014;28;20500;-55
2021/10/24 01:48:17;;;;;;;11.20;7.13;;;281.70;2278.40;;;;;;4955357;29;20042;-55
2021/10/24 01:50:44;;;;;;;8.98;5.88;;;281.70;2278.40;;;;;;4954842;29;20020;-51
2021/10/24 01:53:11;;;;;;;10.63;6.82;;;281.80;2278.40;;;;;;4954863;29;20062;-51
2021/10/24 01:55:37;;;;;;;10.60;7.20;;;281.80;2278.40;;;;;;4955187;29;20055;-51
2021/10/24 01:58:03;;;;;;;10.48;6.90;;;281.80;2278.40;;;;;;4955364;29;20482;-51
2021/10/24 02:00:30;;;;;;;11.35;7.00;;;281.80;2278.40;;;;;;4955225;29;20035;-52
2021/10/24 02:02:55;;;;;;;8.15;5.72;;;281.80;2278.40;;;;;;4955146;29;20473;-51
2021/10/24 02:05:21;;;;;;;17.33;7.45;;;281.70;2278.40;;;;;;4955318;29;20027;-55
2021/10/24 02:07:47;;;;;;;15.45;7.68;;;281.60;2278.40;;;;;;4955649;29;20122;-52
2021/10/24 02:10:15;;;;;;;10.38;7.20;;;256.90;2252.80;;;;;;4955008;29;20086;-51
2021/10/24 02:12:41;;;;;;;11.07;7.00;;;256.90;2252.80;;;;;;4955217;29;20051;-51
2021/10/24 02:15:09;;;;;;;17.67;8.25;;;256.80;2252.80;;;;;;4955277;29;20533;-51
2021/10/24 02:17:35;;;;;;;9.95;6.55;;;256.70;2252.80;;;;;;4954811;29;20042;-55
2021/10/24 02:20:02;;;;;;;13.15;7.68;;;256.80;2252.80;;;;;;4954717;29;20394;-54
2021/10/24 02:22:28;;;;;;;11.73;7.20;;;256.70;2252.80;;;;;;4954871;29;20119;-51
2021/10/24 02:24:54;;;;;;;14.63;8.23;;;256.60;2252.80;;;;;;4955423;29;20070;-52
2021/10/24 02:27:19;;;;;;;12.38;6.88;;;256.50;2252.80;;;;;;4955012;29;20023;-51
2021/10/24 02:29:45;;;;;;;16.00;8.43;;;256.40;2252.80;;;;;;4955345;29;20488;-51
2021/10/24 02:32:12;;;;;;;14.35;7.60;;;256.40;2252.80;;;;;;4954964;28;20031;-64
2021/10/24 02:34:38;;;;;;;12.27;7.70;;;256.40;2252.80;;;;;;4953715;29;20058;-51
2021/10/24 02:37:04;;;;;;;14.32;7.32;;;256.40;2252.80;;;;;;4951072;29;20023;-52
2021/10/24 02:39:30;;;;;;;18.02;8.75;;;256.30;2252.80;;;;;;4948809;29;20110;-56
2021/10/24 02:41:56;;;;;;;13.73;8.52;;;256.30;2252.80;;;;;;4954119;29;20050;-52
2021/10/24 02:44:22;;;;;;;15.75;7.95;;;256.20;2252.80;;;;;;4955906;28;20043;-51
2021/10/24 02:46:49;;;;;;;15.68;7.63;;;256.10;2252.80;;;;;;4952867;28;20466;-51
2021/10/24 02:49:15;;;;;;;22.90;9.18;;;256.00;2252.80;;;;;;4949858;29;20066;-50
2021/10/24 02:51:41;;;;;;;11.93;7.57;;;256.00;2252.80;;;;;;4954907;29;20373;-51
2021/10/24 02:54:07;;;;;;;14.48;7.90;;;256.00;2252.80;;;;;;4952173;28;20030;-51
2021/10/24 02:56:32;;;;;;;10.95;7.53;;;231.30;2252.80;;;;;;4952812;29;20039;-52
2021/10/24 02:58:58;;;;;;;13.50;8.63;;;231.30;2252.80;;;;;;4958175;28;20019;-51
2021/10/24 03:01:24;;;;;;;17.25;8.82;;;231.30;2252.80;;;;;;4960455;28;20038;-56
2021/10/24 03:03:50;;;;;;;11.35;7.57;;;231.30;2252.80;;;;;;4944692;28;20131;-55
2021/10/24 03:06:15;;;;;;;14.45;7.78;;;231.30;2252.80;;;;;;4950720;29;20028;-55
2021/10/24 03:08:41;;;;;;;12.05;8.05;;;231.20;2252.80;;;;;;4952495;29;20038;-56
2021/10/24 03:11:07;;;;;;;13.73;7.72;;;231.20;2252.80;;;;;;4953421;29;20027;-51
2021/10/24 03:13:32;;;;;;;11.10;7.68;;;231.20;2252.80;;;;;;4952779;29;20633;-57
2021/10/24 03:15:58;;;;;;;13.57;8.35;;;231.10;2252.80;;;;;;4952866;29;20023;-51
2021/10/24 03:18:24;;;;;;;14.07;7.70;;;231.10;2252.80;;;;;;4956696;28;20054;-51
2021/10/24 03:20:50;;;;;;;15.57;9.15;;;231.00;2252.80;;;;;;4972591;28;20039;-50
2021/10/24 03:23:15;;;;;;;10.13;7.95;;;230.90;2252.80;;;;;;4972601;28;20114;-50
2021/10/24 03:25:41;;;;;;;16.08;8.15;;;230.80;2252.80;;;;;;4972660;28;20041;-51
2021/10/24 03:28:07;;;;;;;14.93;9.45;;;230.90;2252.80;;;;;;4972659;28;20443;-50
2021/10/24 03:30:33;;;;;;;9.73;7.40;;;230.80;2252.80;;;;;;4972621;28;20062;-51
2021/10/24 03:32:58;;;;;;;15.43;7.95;;;230.80;2252.80;;;;;;4972471;28;20026;-51
2021/10/24 03:35:24;;;;;;;12.65;8.52;;;230.80;2252.80;;;;;;4972477;28;20038;-52
2021/10/24 03:37:50;;;;;;;17.88;8.23;;;230.70;2252.80;;;;;;4972310;28;20038;-51
2021/10/24 03:40:16;;;;;;;10.63;6.82;;;230.60;2252.80;;;;;;4972500;28;20384;-50
2021/10/24 03:42:42;;;;;;;11.45;6.90;;;230.60;2252.80;;;;;;4971725;28;20030;-51
2021/10/24 03:45:08;;;;;;;14.77;7.70;;;230.60;2252.80;;;;;;4972610;28;20062;-51
2021/10/24 03:47:34;;;;;;;11.82;7.35;;;230.50;2252.80;;;;;;4972386;28;20472;-50
2021/10/24 03:50:00;;;;;;;14.65;8.43;;;230.60;2252.80;;;;;;4972178;28;20062;-51
2021/10/24 03:52:26;;;;;;;12.48;8.88;;;230.50;2252.80;;;;;;4972161;28;20023;-51
2021/10/24 03:54:52;;;;;;;11.90;6.72;;;230.50;2252.80;;;;;;4971964;28;20406;-56
2021/10/24 03:57:19;;;;;;;15.57;8.57;;;230.50;2252.80;;;;;;4972332;28;20030;-51
2021/10/24 03:59:45;;;;;;;18.60;7.32;;;230.40;2252.80;;;;;;4972254;28;20038;-51
2021/10/24 04:02:10;;;;;;;16.15;8.25;;;230.40;2252.80;;;;;;4972083;28;20026;-51
2021/10/24 04:04:38;;;;;;;24.90;17.48;;;230.40;2252.80;;;;;;4971897;28;20035;-51
2021/10/24 04:07:04;;;;;;;13.80;7.68;;;230.40;2252.80;;;;;;4971867;28;20038;-51
2021/10/24 04:09:30;;;;;;;14.25;8.48;;;205.70;2252.80;;;;;;4971677;28;20026;-51
2021/10/24 04:11:55;;;;;;;11.88;9.57;;;205.70;2252.80;;;;;;4971963;28;20034;-51
2021/10/24 04:14:24;;;;;;;18.23;14.85;;;205.70;2252.80;;;;;;4971627;28;20382;-56
2021/10/24 04:16:50;;;;;;;13.48;8.98;;;205.70;2252.80;;;;;;4971555;28;20033;-51
2021/10/24 04:19:16;;;;;;;16.08;12.48;;;205.70;2252.80;;;;;;4971694;28;20114;-51
2021/10/24 04:21:42;;;;;;;18.15;12.45;;;205.60;2252.80;;;;;;4971538;28;20090;-51
2021/10/24 04:24:07;;;;;;;23.33;10.27;;;205.60;2252.80;;;;;;4971379;28;20085;-51
2021/10/24 04:26:33;;;;;;;12.13;8.57;;;205.50;2252.80;;;;;;4971770;28;20034;-51
2021/10/24 04:28:59;;;;;;;15.75;9.98;;;205.40;2252.80;;;;;;4971485;28;20029;-51
2021/10/24 04:31:25;;;;;;;17.00;7.55;;;205.40;2252.80;;;;;;4971852;28;20026;-50
2021/10/24 04:33:52;;;;;;;19.13;10.02;;;205.40;2252.80;;;;;;4971587;28;20031;-51
2021/10/24 04:36:19;;;;;;;12.30;9.57;;;205.40;2252.80;;;;;;4971529;28;20105;-52
2021/10/24 04:38:44;;;;;;;16.50;9.27;;;205.30;2252.80;;;;;;4971670;28;20062;-51
2021/10/24 04:41:10;;;;;;;17.20;13.60;;;205.20;2252.80;;;;;;4971444;28;20406;-51
2021/10/24 04:43:36;;;;;;;16.80;9.75;;;205.20;2252.80;;;;;;4971487;28;20081;-50
2021/10/24 04:46:02;;;;;;;17.08;10.15;;;205.10;2252.80;;;;;;4971272;28;20037;-56
2021/10/24 04:48:27;;;;;;;16.30;11.45;;;205.20;2252.80;;;;;;4971384;28;20030;-50
2021/10/24 04:50:53;;;;;;;21.63;10.25;;;205.20;2252.80;;;;;;4971471;28;20041;-51
2021/10/24 04:53:19;;;;;;;17.98;11.23;;;205.10;2252.80;;;;;;4971022;28;20046;-50
2021/10/24 04:55:45;;;;;;;17.23;14.13;;;205.10;2252.80;;;;;;4974543;28;20068;-51
2021/10/24 04:58:11;;;;;;;17.70;11.02;;;205.10;2252.80;;;;;;4975506;28;20042;-51
2021/10/24 05:00:37;;;;;;;18.52;15.02;;;205.10;2252.80;;;;;;4975389;28;20038;-51
2021/10/24 05:03:03;;;;;;;17.23;10.55;;;205.10;2252.80;;;;;;4975302;28;20041;-51
2021/10/24 05:05:29;;;;;;;15.23;8.68;;;205.10;2252.80;;;;;;4974935;28;20031;-51
2021/10/24 05:07:55;;;;;;;12.63;7.50;;;205.00;2252.80;;;;;;4975306;28;20061;-51
2021/10/24 05:10:21;;;;;;;13.02;7.60;;;205.00;2252.80;;;;;;4974919;28;20109;-51
2021/10/24 05:12:47;;;;;;;10.90;8.45;;;205.00;2252.80;;;;;;4975358;28;20082;-50
2021/10/24 05:15:13;;;;;;;14.88;9.05;;;204.80;2252.80;;;;;;4974925;28;20027;-50
2021/10/24 05:17:38;;;;;;;12.05;8.13;;;180.10;2252.80;;;;;;4974772;28;20054;-52
2021/10/24 05:20:05;;;;;;;17.45;8.30;;;179.90;2252.80;;;;;;4974934;28;20485;-50
2021/10/24 05:22:32;;;;;;;13.18;7.80;;;180.00;2252.80;;;;;;4974591;28;20508;-50
2021/10/24 05:24:57;;;;;;;14.05;7.47;;;180.10;2252.80;;;;;;4974757;28;20043;-51
2021/10/24 05:27:23;;;;;;;14.02;7.22;;;180.10;2252.80;;;;;;4974755;28;20496;-56
2021/10/24 05:29:49;;;;;;;13.55;6.43;;;180.10;2252.80;;;;;;4974685;28;20035;-50
2021/10/24 05:32:15;;;;;;;9.63;6.13;;;180.10;2252.80;;;;;;4975205;28;20035;-50
2021/10/24 05:34:42;;;;;;;10.60;5.47;;;204.80;2252.80;;;;;;4974671;28;20030;-50
2021/10/24 05:37:08;;;;;;;12.07;6.53;;;204.90;2252.80;;;;;;4974642;28;20053;-51
2021/10/24 05:39:34;;;;;;;11.63;6.45;;;204.90;2252.80;;;;;;4974800;28;20022;-51
2021/10/24 05:42:00;;;;;;;8.90;6.25;;;205.00;2252.80;;;;;;4974460;28;20035;-56
2021/10/24 05:44:26;;;;;;;7.88;5.50;;;205.00;2252.80;;;;;;4974797;28;20101;-51
2021/10/24 05:46:53;;;;;;;9.52;5.85;;;204.90;2252.80;;;;;;4974578;28;20027;-51
2021/10/24 05:49:19;;;;;;;11.77;6.93;;;204.90;2252.80;;;;;;4974274;28;20031;-51
2021/10/24 05:51:45;;;;;;;9.07;5.82;;;205.00;2252.80;;;;;;4974650;28;20030;-51
2021/10/24 05:54:12;;;;;;;11.05;6.05;;;204.90;2252.80;;;;;;4974022;28;20034;-52
2021/10/24 05:56:37;;;;;;;19.33;13.13;;;205.00;2252.80;;;;;;4974440;28;20102;-50
2021/10/24 05:59:03;;;;;;;26.65;14.65;;;205.10;2252.80;;;;;;4974422;28;20101;-51
2021/10/24 06:01:29;;;;;;;14.77;9.02;;;205.20;2252.80;;;;;;4974199;28;20029;-52
2021/10/24 06:03:55;;;;;;;15.30;8.45;;;205.20;2252.80;;;;;;4974200;28;20137;-51
2021/10/24 06:06:20;;;;;;;14.52;9.23;;;205.30;2252.80;;;;;;4973500;28;20029;-52
2021/10/24 06:08:47;;;;;;;13.07;10.77;;;205.20;2252.80;;;;;;4974291;28;20058;-52
2021/10/24 06:11:14;;;;;;;19.15;14.23;;;205.20;2252.80;;;;;;4973792;28;20038;-52
2021/10/24 06:13:43;;;;;;;28.55;16.30;;;205.10;2252.80;;;;;;4973579;28;20181;-52
2021/10/24 06:16:10;;;;;;;22.98;15.43;;;204.90;2252.80;;;;;;4973875;28;20420;-51
2021/10/24 06:18:38;;;;;;;22.23;15.07;;;204.80;2252.80;;;;;;4974075;28;20385;-51
2021/10/24 06:21:05;;;;;;;31.25;19.80;;;204.80;2252.80;;;;;;4973768;28;20026;-53
2021/10/24 06:23:31;;;;;;;20.20;13.88;;;204.80;2252.80;;;;;;4973529;28;20051;-51
2021/10/24 06:25:57;;;;;;;18.70;11.30;;;204.90;2252.80;;;;;;4973829;28;20106;-52
2021/10/24 06:28:24;;;;;;;16.48;10.77;;;205.00;2252.80;;;;;;4973621;28;20055;-52
2021/10/24 06:30:49;;;;;;;18.52;12.85;;;205.00;2252.80;;;;;;4973590;28;20019;-51
2021/10/24 06:33:15;;;;;;;22.70;12.77;;;204.90;2252.80;;;;;;4974006;28;20077;-51
2021/10/24 06:35:41;;;;;;;26.02;17.40;;;205.00;2252.80;;;;;;4973605;28;20030;-52
2021/10/24 06:38:07;;;;;;;21.98;15.50;;;205.00;2252.80;;;;;;4973600;28;20478;-51
2021/10/24 06:40:33;;;;;;;24.52;15.65;;;205.30;2252.80;;;;;;4971782;28;20038;-51
2021/10/24 06:42:58;;;;;;;27.23;18.17;;;205.40;2252.80;;;;;;4971761;28;20154;-52
2021/10/24 06:45:25;;;;;;;24.17;14.90;;;205.40;2252.80;;;;;;4973496;28;20122;-51
2021/10/24 06:47:52;;;;;;;18.90;13.18;;;205.50;2252.80;;;;;;4973136;28;20031;-52
2021/10/24 06:50:18;;;;;;;21.13;14.55;;;205.50;2252.80;;;;;;4973672;28;20023;-51
2021/10/24 06:52:44;;;;;;;23.65;14.43;;;205.40;2252.80;;;;;;4973345;28;20027;-52
2021/10/24 06:55:10;;;;;;;18.20;12.32;;;205.50;2252.80;;;;;;4973288;28;20401;-52
2021/10/24 06:57:52;;;;;;;17.02;13.35;;;205.70;2252.80;;;;;;4973208;28;20035;-50
2021/10/24 07:00:23;;;;;;;17.00;10.52;;;230.50;2252.80;;;;;;4973070;28;20038;-52
2021/10/24 07:02:49;;;;;;;16.55;11.20;;;230.60;2252.80;;;;;;4973024;28;20027;-51
2021/10/24 07:05:16;;;;;;;13.80;8.48;;;230.60;2252.80;;;;;;4973347;28;20034;-51
2021/10/24 07:07:42;;;;;;;15.88;8.30;;;230.60;2252.80;;;;;;4972700;28;20026;-56
2021/10/24 07:10:10;;;;;;;16.00;11.05;;;230.80;2252.80;;;;;;4972759;28;20461;-53
2021/10/24 07:12:36;;;;;;;17.35;13.73;;;230.80;2252.80;;;;;;4973072;28;20046;-51
2021/10/24 07:15:04;;;;;;;20.90;13.27;;;230.90;2252.80;;;;;;4972903;28;20437;-51
2021/10/24 07:17:30;;;;;;;21.50;16.42;;;256.50;2252.80;;;;;;4971821;28;20525;-52
2021/10/24 07:19:56;;;;;;;21.58;15.65;;;308.10;2304.00;;;;;;4972672;28;20106;-55
2021/10/24 07:22:22;;;;;;;20.98;14.90;;;359.20;2329.60;;;;;;4972349;28;20113;-56
2021/10/24 07:24:48;;;;;;;15.60;10.10;;;409.90;2355.20;;;;;;4972672;28;20085;-54
2021/10/24 07:27:14;;;;;;;13.30;8.85;;;435.40;2355.20;;;;;;4972893;28;20019;-52
2021/10/24 07:29:40;;;;;;;16.83;11.98;;;460.80;2355.20;;;;;;4972525;28;20504;-54
2021/10/24 07:32:07;;;;;;;59.13;39.10;;;461.50;2201.60;;;;;;4970152;28;20485;-58
2021/10/24 07:34:32;;;;;;;18.77;12.80;;;486.70;2099.20;;;;;;4965443;28;20031;-53
2021/10/24 07:36:58;;;;;;;87.85;67.68;;;512.20;1996.80;;;;;;4972369;28;20073;-52
2021/10/24 07:39:24;;;;;;;124.25;95.25;;;512.90;1894.40;;;;;;4972378;28;20397;-52
2021/10/24 07:41:50;;;;;;;54.65;49.42;;;538.40;1817.60;;;;;;4972092;28;20046;-53
2021/10/24 07:44:17;;;;;;;101.93;92.13;;;538.30;1715.20;;;;;;4972408;28;20031;-52
2021/10/24 07:46:43;;;;;;;39.40;35.70;;;563.60;1715.20;;;;;;4972146;28;20034;-55
2021/10/24 07:49:09;;;;;;;24.42;22.20;;;589.30;1587.20;;;;;;4972005;28;20081;-52
2021/10/24 07:51:35;;;;;;;33.45;30.45;;;589.00;1561.60;;;;;;4972041;28;20516;-52
2021/10/24 07:54:05;;;;;;;14.63;12.65;;;589.50;1510.40;;;;;;4971837;28;20031;-53
2021/10/24 07:56:36;;;;;;;16.95;10.82;;;589.70;1484.80;;;;;;4971858;28;20039;-52
2021/10/24 07:59:03;;;;;;;13.80;12.13;;;614.50;1433.60;;;;;;4971965;28;20474;-51
2021/10/24 08:01:31;;;;;;;8.35;6.25;;;614.90;1433.60;;;;;;4972013;28;20031;-53
2021/10/24 08:03:57;;;;;;;23.90;21.83;;;640.00;1331.20;;;;;;4972016;28;20026;-52
2021/10/24 08:06:24;;;;;;;23.50;21.63;;;614.90;1356.80;;;;;;4971940;28;20137;-52
2021/10/24 08:08:50;;;;;;;13.02;9.25;;;615.00;1356.80;;;;;;4971692;28;20109;-52
2021/10/24 08:11:16;;;;;;;12.93;8.50;;;615.30;1331.20;;;;;;4972158;28;20033;-52
2021/10/24 08:13:43;;;;;;;10.15;6.43;;;640.40;1280.00;;;;;;4971563;28;20050;-53
2021/10/24 08:16:09;;;;;;;15.80;14.20;;;640.80;1254.40;;;;;;4971616;28;20035;-53
2021/10/24 08:18:35;;;;;;;24.60;22.52;;;640.60;1228.80;;;;;;4971853;28;20081;-53
2021/10/24 08:21:00;;;;;;;22.20;20.05;;;666.10;1203.20;;;;;;4971367;28;20414;-53
2021/10/24 08:23:27;;;;;;;26.85;24.50;;;665.90;1254.40;;;;;;4971557;28;20046;-53
2021/10/24 08:25:53;;;;;;;26.80;24.23;;;666.20;1228.80;;;;;;4971478;28;20086;-52
2021/10/24 08:28:20;;;;;;;11.45;5.63;;;665.70;1228.80;;;;;;4971464;28;20504;-53
2021/10/24 08:30:48;;;;;;;11.57;10.32;;;640.60;1228.80;;;;;;4971600;28;20448;-58
2021/10/24 08:33:15;;;;;;;11.38;6.82;;;665.60;1203.20;;;;;;4971466;28;20034;-52
2021/10/24 08:35:41;;;;;;;11.70;10.48;;;640.90;1177.60;;;;;;4971306;28;20101;-53
2021/10/24 08:38:06;;;;;;;7.47;5.10;;;640.50;1203.20;;;;;;4971496;28;20109;-53
2021/10/24 08:40:33;;;;;;;9.85;5.38;;;640.10;1203.20;;;;;;4971230;28;20113;-53
2021/10/24 08:43:03;;;;;;;8.43;5.13;;;640.50;1177.60;;;;;;4971291;28;20019;-52
2021/10/24 08:45:29;;;;;;;8.02;5.28;;;665.70;1203.20;;;;;;4971292;28;20054;-53
2021/10/24 08:47:57;;;;;;;26.10;21.98;;;665.90;1177.60;;;;;;4971545;28;20041;-54
2021/10/24 08:50:23;;;;;;;7.55;6.85;;;666.00;1177.60;;;;;;4971241;28;20031;-53
2021/10/24 08:52:52;;;;;;;10.23;7.10;;;640.90;1177.60;;;;;;4971127;28;20027;-53
2021/10/24 08:55:18;;;;;;;8.25;5.97;;;665.90;1177.60;;;;;;4971660;28;20039;-57
2021/10/24 08:57:48;;;;;;;15.80;14.18;;;666.30;1126.40;;;;;;4971504;28;20023;-53
2021/10/24 09:00:14;;;;;;;13.23;10.07;;;665.70;1126.40;;;;;;4971326;28;20038;-52
2021/10/24 09:03:07;;;;;;;5.97;5.15;;;665.60;1152.00;;;;;;4971219;28;20035;-53
2021/10/24 09:05:42;;;;;;;9.73;6.78;;;665.60;1152.00;;;;;;4971037;28;20054;-52
2021/10/24 09:08:09;;;;;;;7.80;4.45;;;640.50;1126.40;;;;;;4971307;28;20045;-52
2021/10/24 09:11:02;;;;;;;24.38;17.98;;;615.00;1126.40;;;;;;4971366;28;20037;-53
2021/10/24 09:13:31;;;;;;;32.78;24.00;;;589.00;1203.20;;;;;;4971151;28;20058;-52
2021/10/24 09:16:01;;;;;;;21.40;13.35;;;538.40;1228.80;;;;;;4971002;28;20038;-52
2021/10/24 09:18:38;;;;;;;15.82;11.95;;;537.80;1280.00;;;;;;4971329;28;20031;-50
2021/10/24 09:21:29;;;;;;;12.20;8.23;;;512.40;1254.40;;;;;;4970758;28;20085;-52
2021/10/24 09:24:23;;;;;;;9.95;7.25;;;487.10;1331.20;;;;;;4892547;29;20060;-56
2021/10/24 09:26:49;;;;;;;11.32;7.28;;;486.70;1408.00;;;;;;4837032;29;20076;-53
2021/10/24 09:29:16;;;;;;;10.80;5.32;;;486.70;1331.20;;;;;;4837326;29;20127;-56
2021/10/24 09:31:44;;;;;;;11.52;7.30;;;461.40;1356.80;;;;;;4836856;29;20042;-53
2021/10/24 09:34:21;;;;;;;14.07;7.90;;;435.90;1408.00;;;;;;4836863;29;20113;-55
2021/10/24 09:36:58;;;;;;;14.40;7.85;;;435.90;1433.60;;;;;;4837215;29;20039;-59
2021/10/24 09:39:34;;;;;;;5.10;2.83;;;460.80;1536.00;;;;;;4837048;29;20064;-58
2021/10/24 09:42:17;;;;;;;8.32;5.43;;;435.90;1459.20;;;;;;4839694;29;20042;-58
2021/10/24 09:45:07;;;;;;;30.58;21.48;;;435.90;1536.00;;;;;;4840326;29;20049;-58
2021/10/24 09:47:44;;;;;;;10.75;6.38;;;435.70;1510.40;;;;;;4840387;29;20034;-53
2021/10/24 09:50:32;;;;;;;7.00;4.10;;;410.20;1484.80;;;;;;4840037;29;20046;-52
2021/10/24 09:53:12;;;;;;;14.38;8.23;;;410.00;1510.40;;;;;;4839930;29;20034;-53
2021/10/24 09:55:39;;;;;;;10.45;5.90;;;410.30;1510.40;;;;;;4840275;29;20506;-58
2021/10/24 09:58:06;;;;;;;9.90;6.00;;;435.30;1484.80;;;;;;4840248;29;20041;-59
2021/10/24 10:00:32;;;;;;;13.07;4.63;;;435.30;1561.60;;;;;;4860220;29;20052;-57
2021/10/24 10:03:00;;;;;;;10.95;5.50;;;435.50;1536.00;;;;;;4926855;28;20027;-53
2021/10/24 10:05:26;;;;;;;13.48;8.98;;;435.70;1510.40;;;;;;4974025;28;20035;-51
2021/10/24 10:07:52;;;;;;;5.68;3.50;;;435.80;1484.80;;;;;;4973892;28;20484;-54
2021/10/24 10:10:20;;;;;;;10.43;6.78;;;435.70;1536.00;;;;;;4974015;28;20034;-53
2021/10/24 10:12:48;;;;;;;10.40;4.75;;;435.30;1484.80;;;;;;4973994;28;20053;-53
2021/10/24 10:15:14;;;;;;;6.55;3.90;;;410.50;1510.40;;;;;;4972820;28;20058;-52
2021/10/24 10:17:40;;;;;;;9.80;3.78;;;410.50;1459.20;;;;;;4971528;28;20475;-53
2021/10/24 10:20:27;;;;;;;13.38;5.20;;;435.30;1510.40;;;;;;4972310;28;20030;-53
2021/10/24 10:23:01;;;;;;;8.73;3.53;;;435.40;1561.60;;;;;;4972169;28;20027;-57
2021/10/24 10:25:29;;;;;;;8.90;3.95;;;435.30;1587.20;;;;;;4972250;28;20478;-53
2021/10/24 10:27:55;;;;;;;10.68;5.03;;;435.20;1561.60;;;;;;4972255;28;20166;-54
2021/10/24 10:31:08;;;;;;;26.90;17.83;;;410.50;1536.00;;;;;;4971698;28;20070;-52
2021/10/24 10:33:35;;;;;;;10.25;6.15;;;409.80;1484.80;;;;;;4874924;29;20170;-55
2021/10/24 10:36:03;;;;;;;11.10;7.32;;;384.90;1459.20;;;;;;4867954;29;20496;-53
2021/10/24 10:38:36;;;;;;;7.22;3.95;;;409.60;1536.00;;;;;;4855954;29;20654;-53
2021/10/24 10:41:03;;;;;;;20.30;14.07;;;409.80;1536.00;;;;;;4855953;29;20606;-54
2021/10/24 10:43:29;;;;;;;42.55;27.13;;;409.70;1459.20;;;;;;4855391;29;20396;-53
2021/10/24 10:45:57;;;;;;;110.63;59.92;;;410.00;1484.80;;;;;;4856070;29;20041;-57
2021/10/24 10:48:27;;;;;;;106.88;63.08;;;410.00;1510.40;;;;;;4855591;29;20544;-56
2021/10/24 10:51:13;;;;;;;43.88;26.42;;;409.90;1536.00;;;;;;4856005;29;20037;-53
2021/10/24 10:53:45;;;;;;;10.13;5.70;;;409.80;1536.00;;;;;;4856637;29;20391;-53
2021/10/24 10:56:29;;;;;;;6.70;3.30;;;409.70;1561.60;;;;;;4857748;29;20038;-52
2021/10/24 10:59:00;;;;;;;16.67;8.52;;;409.60;1612.80;;;;;;4857628;29;20455;-60
2021/10/24 11:01:36;;;;;;;12.30;7.63;;;384.80;1561.60;;;;;;4857533;29;20401;-53
2021/10/24 11:04:07;;;;;;;15.38;9.98;;;409.60;1510.40;;;;;;4857389;29;20129;-53
2021/10/24 11:06:36;;;;;;;12.93;7.32;;;384.60;1484.80;;;;;;4873952;29;20042;-53
2021/10/24 11:09:10;;;;;;;13.52;7.28;;;384.50;1484.80;;;;;;4953368;29;20548;-54
2021/10/24 11:11:45;;;;;;;6.43;3.25;;;384.20;1484.80;;;;;;4953661;29;20074;-59
2021/10/24 11:14:11;;;;;;;8.20;3.38;;;359.30;1459.20;;;;;;4953234;29;20151;-53
2021/10/24 11:17:03;;;;;;;7.68;5.57;;;384.00;1459.20;;;;;;4953752;29;20102;-53
2021/10/24 11:19:29;;;;;;;8.45;5.53;;;384.00;1459.20;;;;;;4943592;29;20039;-53
2021/10/24 11:22:17;;;;;;;5.70;2.70;;;384.30;1510.40;;;;;;4953442;29;20039;-53
2021/10/24 11:25:01;;;;;;;7.93;6.40;;;384.00;1484.80;;;;;;4953193;29;20067;-53
2021/10/24 11:27:27;;;;;;;;;;;384.10;1536.00;;;;;;4946315;29;20104;-54
2021/10/24 11:30:04;;;;;;;11.23;7.50;;;384.00;1510.40;;;;;;4953254;29;19907;-54
2021/10/24 11:32:33;;;;;;;10.10;5.88;;;384.10;1561.60;;;;;;4952991;29;20039;-54
2021/10/24 11:34:59;;;;;;;10.60;6.30;;;359.10;1536.00;;;;;;4953240;29;20023;-55
2021/10/24 11:37:36;;;;;;;16.35;9.93;;;359.10;1561.60;;;;;;4936052;29;20039;-53
2021/10/24 11:40:10;;;;;;;12.52;6.25;;;359.10;1561.60;;;;;;4953088;29;20034;-53
2021/10/24 11:42:37;;;;;;;9.55;5.50;;;359.10;1561.60;;;;;;4953412;29;20035;-53
2021/10/24 11:45:23;;;;;;;13.15;6.93;;;359.20;1561.60;;;;;;4952771;29;20035;-53
2021/10/24 11:48:06;;;;;;;10.27;5.68;;;359.30;1561.60;;;;;;4953078;29;20023;-54
2021/10/24 11:50:43;;;;;;;13.07;6.60;;;384.10;1510.40;;;;;;4945795;29;20478;-53
2021/10/24 11:53:25;;;;;;;10.50;6.20;;;384.30;1510.40;;;;;;4952583;29;20036;-53
2021/10/24 11:56:19;;;;;;;13.52;6.95;;;384.40;1561.60;;;;;;4952807;29;20039;-54
2021/10/24 12:01:18;;;;;;;22.17;12.90;;;384.30;1510.40;;;;;;4952741;29;20031;-53
2021/10/24 12:04:05;;;;;;;28.85;17.05;;;384.20;1561.60;;;;;;4952413;28;20031;-53
2021/10/24 12:06:52;;;;;;;17.33;11.25;;;384.20;1536.00;;;;;;4952444;29;20556;-53
2021/10/24 12:09:38;;;;;;;9.48;6.65;;;384.30;1536.00;;;;;;4952992;29;20430;-53
2021/10/24 12:12:15;;;;;;;10.18;5.85;;;384.30;1510.40;;;;;;4952557;29;20050;-53
2021/10/24 12:15:06;;;;;;;154.88;100.30;;;384.00;1536.00;;;;;;4952327;29;20042;-54